createdAt,value
2017-10-01T00:01:20.599Z,15.27
2017-10-01T00:03:47.871Z,21.67
2017-10-01T00:06:15.150Z,23.83
2017-10-01T00:08:42.422Z,16.90
2017-10-01T00:11:09.713Z,17.40
2017-10-01T00:13:36.974Z,15.00
2017-10-01T00:16:04.277Z,15.40
2017-10-01T00:18:31.532Z,17.50
2017-10-01T00:20:58.833Z,19.50
2017-10-01T00:23:26.100Z,15.33
2017-10-01T00:25:53.383Z,15.83
2017-10-01T00:28:20.649Z,13.63
2017-10-01T00:30:47.940Z,15.03
2017-10-01T00:33:15.202Z,17.60
2017-10-01T00:35:42.520Z,15.87
2017-10-01T00:38:09.803Z,16.37
2017-10-01T00:40:37.080Z,10.97
2017-10-01T00:43:04.358Z,11.87
2017-10-01T00:45:31.630Z,21.30
2017-10-01T00:47:58.923Z,17.20
2017-10-01T00:50:26.186Z,12.20
2017-10-01T00:52:53.479Z,16.17
2017-10-01T00:55:20.747Z,13.97
2017-10-01T00:57:48.240Z,16.50
2017-10-01T01:00:15.506Z,13.07
2017-10-01T01:02:42.794Z,17.93
2017-10-01T01:05:10.066Z,15.67
2017-10-01T01:07:38.191Z,13.37
2017-10-01T01:10:05.482Z,13.63
2017-10-01T01:12:32.747Z,15.03
2017-10-01T01:15:00.036Z,10.30
2017-10-01T01:17:27.300Z,11.47
2017-10-01T01:19:54.587Z,10.47
2017-10-01T01:22:21.858Z,14.03
2017-10-01T01:27:22.874Z,12.07
2017-10-01T01:29:50.150Z,9.50
2017-10-01T01:32:17.419Z,14.03
2017-10-01T01:34:44.707Z,11.57
2017-10-01T01:37:11.971Z,13.83
2017-10-01T01:39:39.270Z,13.40
2017-10-01T01:42:06.536Z,10.93
2017-10-01T01:44:33.806Z,6.83
2017-10-01T01:47:01.082Z,8.43
2017-10-01T01:49:28.338Z,10.70
2017-10-01T01:51:55.624Z,11.57
2017-10-01T01:54:22.886Z,12.93
2017-10-01T01:56:50.172Z,10.87
2017-10-01T01:59:17.434Z,10.07
2017-10-01T02:01:44.707Z,7.33
2017-10-01T02:04:11.972Z,9.80
2017-10-01T02:06:39.252Z,5.87
2017-10-01T02:09:06.510Z,11.53
2017-10-01T02:11:33.799Z,7.37
2017-10-01T02:14:01.066Z,10.87
2017-10-01T02:16:28.347Z,6.73
2017-10-01T02:18:55.607Z,6.80
2017-10-01T02:21:22.888Z,5.60
2017-10-01T02:23:50.153Z,7.87
2017-10-01T02:26:17.414Z,7.63
2017-10-01T02:28:44.699Z,8.33
2017-10-01T02:31:11.963Z,10.00
2017-10-01T02:33:39.247Z,11.10
2017-10-01T02:36:06.523Z,11.70
2017-10-01T02:38:33.794Z,5.27
2017-10-01T02:41:01.059Z,7.87
2017-10-01T02:43:28.350Z,7.00
2017-10-01T02:45:55.598Z,7.80
2017-10-01T02:48:22.878Z,9.60
2017-10-01T02:50:50.149Z,13.80
2017-10-01T02:53:17.442Z,10.50
2017-10-01T02:55:44.696Z,13.23
2017-10-01T02:58:11.975Z,7.50
2017-10-01T03:00:39.253Z,6.20
2017-10-01T03:03:06.510Z,9.90
2017-10-01T03:05:33.775Z,7.47
2017-10-01T03:08:01.035Z,8.80
2017-10-01T03:10:28.324Z,8.93
2017-10-01T03:12:55.583Z,4.07
2017-10-01T03:15:22.859Z,4.83
2017-10-01T03:17:50.119Z,4.93
2017-10-01T03:20:17.405Z,6.93
2017-10-01T03:22:44.664Z,6.33
2017-10-01T03:25:11.934Z,6.57
2017-10-01T03:27:39.208Z,4.10
2017-10-01T03:30:06.483Z,7.77
2017-10-01T03:32:33.742Z,5.87
2017-10-01T03:35:01.022Z,5.57
2017-10-01T03:37:28.281Z,4.40
2017-10-01T03:39:55.555Z,7.03
2017-10-01T03:42:22.819Z,6.27
2017-10-01T03:44:50.080Z,5.90
2017-10-01T03:47:17.359Z,8.50
2017-10-01T03:49:44.619Z,6.90
2017-10-01T03:52:11.894Z,5.80
2017-10-01T03:54:39.160Z,7.50
2017-10-01T03:57:06.443Z,9.00
2017-10-01T03:59:33.700Z,7.50
2017-10-01T04:02:00.979Z,6.03
2017-10-01T04:04:28.250Z,4.50
2017-10-01T04:06:55.524Z,7.10
2017-10-01T04:09:22.783Z,7.97
2017-10-01T04:11:50.079Z,5.80
2017-10-01T04:14:17.339Z,3.93
2017-10-01T04:16:44.603Z,7.60
2017-10-01T04:19:11.875Z,4.17
2017-10-01T04:21:39.984Z,5.50
2017-10-01T04:24:07.254Z,4.03
2017-10-01T04:26:34.515Z,9.13
2017-10-01T04:29:01.800Z,2.80
2017-10-01T04:31:29.106Z,2.70
2017-10-01T04:33:56.383Z,5.07
2017-10-01T04:36:23.639Z,2.50
2017-10-01T04:38:50.928Z,3.37
2017-10-01T04:41:18.186Z,3.13
2017-10-01T04:43:45.463Z,5.30
2017-10-01T04:46:12.725Z,2.23
2017-10-01T04:48:40.014Z,3.50
2017-10-01T04:51:07.271Z,3.73
2017-10-01T04:53:34.542Z,3.73
2017-10-01T04:56:01.807Z,8.03
2017-10-01T04:58:29.094Z,2.60
2017-10-01T05:00:56.353Z,4.63
2017-10-01T05:03:23.630Z,2.67
2017-10-01T05:05:50.914Z,4.00
2017-10-01T05:08:18.174Z,3.73
2017-10-01T05:10:45.455Z,3.90
2017-10-01T05:13:12.711Z,4.23
2017-10-01T05:15:39.991Z,2.80
2017-10-01T05:18:07.259Z,4.03
2017-10-01T05:20:34.538Z,3.47
2017-10-01T05:23:01.863Z,2.67
2017-10-01T05:25:29.111Z,3.77
2017-10-01T05:27:56.378Z,2.73
2017-10-01T05:30:23.686Z,3.90
2017-10-01T05:32:50.950Z,3.87
2017-10-01T05:35:18.207Z,9.67
2017-10-01T05:37:45.491Z,5.20
2017-10-01T05:40:12.774Z,9.87
2017-10-01T05:42:40.033Z,7.50
2017-10-01T05:45:07.315Z,5.50
2017-10-01T05:47:34.576Z,4.87
2017-10-01T05:50:02.143Z,5.70
2017-10-01T05:52:29.431Z,14.50
2017-10-01T05:54:56.940Z,3.63
2017-10-01T05:57:24.194Z,6.23
2017-10-01T05:59:51.489Z,7.00
2017-10-01T06:02:18.766Z,5.43
2017-10-01T06:04:47.215Z,5.10
2017-10-01T06:07:14.886Z,5.83
2017-10-01T06:09:42.163Z,8.30
2017-10-01T06:12:09.422Z,5.40
2017-10-01T06:14:36.711Z,6.30
2017-10-01T06:17:03.970Z,3.90
2017-10-01T06:19:31.265Z,6.07
2017-10-01T06:21:58.531Z,3.57
2017-10-01T06:24:25.792Z,3.63
2017-10-01T06:26:53.079Z,4.00
2017-10-01T06:29:20.382Z,5.63
2017-10-01T06:31:47.630Z,4.50
2017-10-01T06:34:14.903Z,5.80
2017-10-01T06:36:42.178Z,4.00
2017-10-01T06:39:09.442Z,7.20
2017-10-01T06:41:36.736Z,9.80
2017-10-01T06:44:03.999Z,8.43
2017-10-01T06:46:31.284Z,6.30
2017-10-01T06:48:58.591Z,8.70
2017-10-01T06:51:25.855Z,4.30
2017-10-01T06:53:53.116Z,3.93
2017-10-01T06:56:20.401Z,7.13
2017-10-01T06:58:47.686Z,9.37
2017-10-01T07:01:14.948Z,6.90
2017-10-01T07:03:42.207Z,10.00
2017-10-01T07:06:09.507Z,11.03
2017-10-01T07:08:36.775Z,12.87
2017-10-01T07:11:04.058Z,11.03
2017-10-01T07:13:31.323Z,11.30
2017-10-01T07:15:58.607Z,14.50
2017-10-01T07:18:25.871Z,13.43
2017-10-01T07:20:53.164Z,15.77
2017-10-01T07:23:20.430Z,18.30
2017-10-01T07:25:47.735Z,14.47
2017-10-01T07:28:15.010Z,10.97
2017-10-01T07:30:42.294Z,21.47
2017-10-01T07:33:09.563Z,13.23
2017-10-01T07:35:36.858Z,18.87
2017-10-01T07:38:04.120Z,13.00
2017-10-01T07:40:31.410Z,15.93
2017-10-01T07:42:58.678Z,13.70
2017-10-01T07:45:25.963Z,16.50
2017-10-01T07:47:53.235Z,12.00
2017-10-01T07:50:20.506Z,14.73
2017-10-01T07:52:47.783Z,10.73
2017-10-01T07:55:15.052Z,10.70
2017-10-01T07:57:42.392Z,10.37
2017-10-01T08:00:09.656Z,15.40
2017-10-01T08:02:36.936Z,8.63
2017-10-01T08:05:04.199Z,11.63
2017-10-01T08:07:31.607Z,12.07
2017-10-01T08:09:58.875Z,9.57
2017-10-01T08:12:26.151Z,7.63
2017-10-01T08:14:53.424Z,12.57
2017-10-01T08:17:20.701Z,6.23
2017-10-01T08:19:47.966Z,9.00
2017-10-01T08:22:15.246Z,6.80
2017-10-01T08:24:42.510Z,7.93
2017-10-01T08:27:09.786Z,5.27
2017-10-01T08:29:37.046Z,8.50
2017-10-01T08:32:04.331Z,10.60
2017-10-01T08:34:31.600Z,11.93
2017-10-01T08:36:58.883Z,11.17
2017-10-01T08:39:26.149Z,11.63
2017-10-01T08:41:53.430Z,12.30
2017-10-01T08:44:20.700Z,11.10
2017-10-01T08:46:47.978Z,10.20
2017-10-01T08:49:15.246Z,7.20
2017-10-01T08:51:42.523Z,7.43
2017-10-01T08:54:09.787Z,9.60
2017-10-01T08:56:37.071Z,8.83
2017-10-01T08:59:04.341Z,13.60
2017-10-01T09:01:31.630Z,9.97
2017-10-01T09:03:58.879Z,5.70
2017-10-01T09:06:26.148Z,12.90
2017-10-01T09:08:53.432Z,6.30
2017-10-01T09:11:20.691Z,9.03
2017-10-01T09:13:47.966Z,8.00
2017-10-01T09:16:15.227Z,7.33
2017-10-01T09:18:42.514Z,10.50
2017-10-01T09:21:09.780Z,11.00
2017-10-01T09:23:37.057Z,8.67
2017-10-01T09:26:04.322Z,10.97
2017-10-01T09:28:31.599Z,8.63
2017-10-01T09:30:58.859Z,9.17
2017-10-01T09:33:26.140Z,8.53
2017-10-01T09:35:53.399Z,8.93
2017-10-01T09:38:20.678Z,9.10
2017-10-01T09:40:47.938Z,8.13
2017-10-01T09:43:15.218Z,7.77
2017-10-01T09:45:42.486Z,13.30
2017-10-01T09:48:09.771Z,7.50
2017-10-01T09:50:37.022Z,14.60
2017-10-01T09:53:04.311Z,9.23
2017-10-01T09:55:31.573Z,5.27
2017-10-01T09:57:58.860Z,11.87
2017-10-01T10:00:26.125Z,7.57
2017-10-01T10:02:53.407Z,8.83
2017-10-01T10:05:20.663Z,8.20
2017-10-01T10:07:47.949Z,6.70
2017-10-01T10:10:15.204Z,7.90
2017-10-01T10:12:42.486Z,6.80
2017-10-01T10:15:09.750Z,7.73
2017-10-01T10:17:37.028Z,8.00
2017-10-01T10:20:04.289Z,8.83
2017-10-01T10:22:31.542Z,7.87
2017-10-01T10:24:58.820Z,4.37
2017-10-01T10:27:26.100Z,6.13
2017-10-01T10:29:53.377Z,8.93
2017-10-01T10:32:20.635Z,13.83
2017-10-01T10:34:47.923Z,7.47
2017-10-01T10:37:15.199Z,7.30
2017-10-01T10:39:42.479Z,8.20
2017-10-01T10:42:09.740Z,9.00
2017-10-01T10:44:37.010Z,8.23
2017-10-01T10:47:04.275Z,7.50
2017-10-01T10:49:31.550Z,6.93
2017-10-01T10:51:58.811Z,5.53
2017-10-01T10:54:26.115Z,6.80
2017-10-01T10:56:53.379Z,7.13
2017-10-01T10:59:20.655Z,8.87
2017-10-01T11:01:47.914Z,9.03
2017-10-01T11:04:15.198Z,10.87
2017-10-01T11:06:42.469Z,6.90
2017-10-01T11:09:09.748Z,6.87
2017-10-01T11:11:37.020Z,8.53
2017-10-01T11:14:04.306Z,13.07
2017-10-01T11:16:31.603Z,7.20
2017-10-01T11:18:58.894Z,10.87
2017-10-01T11:21:26.162Z,5.93
2017-10-01T11:23:53.431Z,7.60
2017-10-01T11:26:20.686Z,7.97
2017-10-01T11:28:47.984Z,6.93
2017-10-01T11:31:15.255Z,8.43
2017-10-01T11:33:42.522Z,7.90
2017-10-01T11:36:09.800Z,6.67
2017-10-01T11:38:37.075Z,6.03
2017-10-01T11:41:04.350Z,6.17
2017-10-01T11:43:31.626Z,8.37
2017-10-01T11:45:58.906Z,6.47
2017-10-01T11:48:26.175Z,6.60
2017-10-01T11:50:53.475Z,10.97
2017-10-01T11:53:20.736Z,14.10
2017-10-01T11:55:48.023Z,6.70
2017-10-01T11:58:15.286Z,9.33
2017-10-01T12:00:42.570Z,5.87
2017-10-01T12:03:09.851Z,10.73
2017-10-01T12:05:37.131Z,6.30
2017-10-01T12:08:04.404Z,11.83
2017-10-01T12:10:31.695Z,10.33
2017-10-01T12:12:58.965Z,10.00
2017-10-01T12:15:26.353Z,8.27
2017-10-01T12:17:53.610Z,9.43
2017-10-01T12:20:20.904Z,10.87
2017-10-01T12:22:48.163Z,8.47
2017-10-01T12:25:15.452Z,9.07
2017-10-01T12:27:42.717Z,7.80
2017-10-01T12:30:10.010Z,9.83
2017-10-01T12:32:37.280Z,8.90
2017-10-01T12:35:04.540Z,6.60
2017-10-01T12:37:31.810Z,6.37
2017-10-01T12:39:59.092Z,8.13
2017-10-01T12:42:26.378Z,13.57
2017-10-01T12:44:53.659Z,7.30
2017-10-01T12:47:20.943Z,10.93
2017-10-01T12:49:48.216Z,12.47
2017-10-01T12:52:15.498Z,9.37
2017-10-01T12:54:42.772Z,8.20
2017-10-01T12:57:10.057Z,11.80
2017-10-01T12:59:37.340Z,14.50
2017-10-01T13:02:10.412Z,11.30
2017-10-01T13:04:37.688Z,19.80
2017-10-01T13:07:04.992Z,10.47
2017-10-01T13:09:32.270Z,10.03
2017-10-01T13:11:59.577Z,11.90
2017-10-01T13:14:27.088Z,8.60
2017-10-01T13:16:54.439Z,11.47
2017-10-01T13:19:21.711Z,9.23
2017-10-01T13:21:49.001Z,14.27
2017-10-01T13:24:16.267Z,12.37
2017-10-01T13:26:43.553Z,9.70
2017-10-01T13:29:10.815Z,11.13
2017-10-01T13:31:38.103Z,8.47
2017-10-01T13:34:05.377Z,14.20
2017-10-01T13:36:32.652Z,9.90
2017-10-01T13:38:59.911Z,7.00
2017-10-01T13:41:27.190Z,12.50
2017-10-01T13:43:54.470Z,11.17
2017-10-01T13:46:21.766Z,8.40
2017-10-01T13:48:49.023Z,9.03
2017-10-01T13:51:16.291Z,10.10
2017-10-01T13:53:43.592Z,8.87
2017-10-01T13:56:10.869Z,12.33
2017-10-01T13:58:38.156Z,13.47
2017-10-01T14:01:05.418Z,8.40
2017-10-01T14:03:32.707Z,7.90
2017-10-01T14:05:59.969Z,10.93
2017-10-01T14:08:27.254Z,8.50
2017-10-01T14:10:54.525Z,13.20
2017-10-01T14:13:21.844Z,8.73
2017-10-01T14:15:49.119Z,15.10
2017-10-01T14:18:16.410Z,10.93
2017-10-01T14:20:43.700Z,10.50
2017-10-01T14:23:10.984Z,10.70
2017-10-01T14:25:38.249Z,8.33
2017-10-01T14:28:05.528Z,8.80
2017-10-01T14:30:38.478Z,10.47
2017-10-01T14:33:05.758Z,9.47
2017-10-01T14:35:33.022Z,9.70
2017-10-01T14:38:00.316Z,12.13
2017-10-01T14:40:27.595Z,12.10
2017-10-01T14:42:54.883Z,9.13
2017-10-01T14:45:22.147Z,13.50
2017-10-01T14:47:49.441Z,11.57
2017-10-01T14:50:16.712Z,16.07
2017-10-01T14:52:43.979Z,9.13
2017-10-01T14:55:11.263Z,9.67
2017-10-01T14:57:38.531Z,9.90
2017-10-01T15:00:05.832Z,15.70
2017-10-01T15:02:34.327Z,14.10
2017-10-01T15:05:02.486Z,14.70
2017-10-01T15:07:30.674Z,8.40
2017-10-01T15:09:57.951Z,12.93
2017-10-01T15:12:25.227Z,10.47
2017-10-01T15:14:52.512Z,11.33
2017-10-01T15:17:19.774Z,14.37
2017-10-01T15:19:47.076Z,13.43
2017-10-01T15:22:14.357Z,13.97
2017-10-01T15:24:41.640Z,16.20
2017-10-01T15:27:08.906Z,13.67
2017-10-01T15:29:36.217Z,16.23
2017-10-01T15:32:03.470Z,9.50
2017-10-01T15:34:30.760Z,12.10
2017-10-01T15:36:58.043Z,14.30
2017-10-01T15:39:25.328Z,13.93
2017-10-01T15:41:52.615Z,9.83
2017-10-01T15:44:19.896Z,10.30
2017-10-01T15:46:47.154Z,9.57
2017-10-01T15:49:14.445Z,15.87
2017-10-01T15:51:41.723Z,20.10
2017-10-01T15:54:09.042Z,12.53
2017-10-01T15:56:36.351Z,16.90
2017-10-01T15:59:03.623Z,13.40
2017-10-01T16:01:30.918Z,12.43
2017-10-01T16:03:58.186Z,15.97
2017-10-01T16:06:25.482Z,12.17
2017-10-01T16:08:52.754Z,13.47
2017-10-01T16:11:20.048Z,14.17
2017-10-01T16:13:47.318Z,16.23
2017-10-01T16:16:14.609Z,19.43
2017-10-01T16:18:41.892Z,20.53
2017-10-01T16:21:09.203Z,15.90
2017-10-01T16:23:36.497Z,23.47
2017-10-01T16:26:03.801Z,17.80
2017-10-01T16:28:31.070Z,16.70
2017-10-01T16:30:58.402Z,18.30
2017-10-01T16:33:25.654Z,17.13
2017-10-01T16:35:52.952Z,14.80
2017-10-01T16:38:20.224Z,14.23
2017-10-01T16:40:47.526Z,14.40
2017-10-01T16:43:14.795Z,15.60
2017-10-01T16:45:42.114Z,17.33
2017-10-01T16:48:09.463Z,18.13
2017-10-01T16:50:36.798Z,18.93
2017-10-01T16:53:04.214Z,19.57
2017-10-01T16:55:31.506Z,16.20
2017-10-01T16:57:58.808Z,16.87
2017-10-01T17:00:26.153Z,16.60
2017-10-01T17:02:53.522Z,17.73
2017-10-01T17:05:20.861Z,19.33
2017-10-01T17:07:48.360Z,20.23
2017-10-01T17:10:15.710Z,12.30
2017-10-01T17:12:43.006Z,17.77
2017-10-01T17:15:10.524Z,18.37
2017-10-01T17:17:37.847Z,18.50
2017-10-01T17:20:05.121Z,18.67
2017-10-01T17:22:32.419Z,21.03
2017-10-01T17:24:59.694Z,21.70
2017-10-01T17:27:27.010Z,20.20
2017-10-01T17:29:54.304Z,22.70
2017-10-01T17:32:21.598Z,23.23
2017-10-01T17:34:48.887Z,22.27
2017-10-01T17:37:16.185Z,20.50
2017-10-01T17:39:45.051Z,29.57
2017-10-01T17:42:12.708Z,24.77
2017-10-01T17:44:40.365Z,20.37
2017-10-01T17:47:07.746Z,19.03
2017-10-01T17:49:35.032Z,19.30
2017-10-01T17:52:02.331Z,27.43
2017-10-01T17:54:29.615Z,22.00
2017-10-01T17:56:56.938Z,20.90
2017-10-01T17:59:24.220Z,23.67
2017-10-01T18:01:51.501Z,19.03
2017-10-01T18:04:18.799Z,23.83
2017-10-01T18:06:46.078Z,15.00
2017-10-01T18:09:13.400Z,18.30
2017-10-01T18:11:40.670Z,24.97
2017-10-01T18:14:07.974Z,17.03
2017-10-01T18:16:35.252Z,16.60
2017-10-01T18:19:02.539Z,23.13
2017-10-01T18:21:29.827Z,22.80
2017-10-01T18:23:57.121Z,22.83
2017-10-01T18:26:24.419Z,20.83
2017-10-01T18:28:51.737Z,18.03
2017-10-01T18:31:19.012Z,21.17
2017-10-01T18:33:46.334Z,16.70
2017-10-01T18:36:13.623Z,17.10
2017-10-01T18:38:40.925Z,14.63
2017-10-01T18:41:08.191Z,18.50
2017-10-01T18:43:35.512Z,14.60
2017-10-01T18:46:02.798Z,20.87
2017-10-01T18:48:36.873Z,20.87
2017-10-01T18:51:11.265Z,16.30
2017-10-01T18:53:38.560Z,14.17
2017-10-01T18:56:05.838Z,19.60
2017-10-01T18:58:33.147Z,20.30
2017-10-01T19:01:00.432Z,16.13
2017-10-01T19:03:27.709Z,18.87
2017-10-01T19:05:55.007Z,15.90
2017-10-01T19:08:22.290Z,17.20
2017-10-01T19:10:49.583Z,15.00
2017-10-01T19:13:16.863Z,16.83
2017-10-01T19:15:44.159Z,14.30
2017-10-01T19:18:11.434Z,14.80
2017-10-01T19:20:38.729Z,15.90
2017-10-01T19:23:05.998Z,13.90
2017-10-01T19:25:33.285Z,16.53
2017-10-01T19:28:00.550Z,12.10
2017-10-01T19:30:27.832Z,14.60
2017-10-01T19:32:55.227Z,16.37
2017-10-01T19:35:22.499Z,14.87
2017-10-01T19:37:49.759Z,13.67
2017-10-01T19:40:17.055Z,9.03
2017-10-01T19:42:44.326Z,9.40
2017-10-01T19:45:12.127Z,13.17
2017-10-01T19:47:39.439Z,14.60
2017-10-01T19:50:06.691Z,11.23
2017-10-01T19:52:34.059Z,8.93
2017-10-01T19:55:01.346Z,12.20
2017-10-01T19:57:28.628Z,14.20
2017-10-01T19:59:55.894Z,12.23
2017-10-01T20:02:23.189Z,10.93
2017-10-01T20:04:50.450Z,10.83
2017-10-01T20:07:17.742Z,10.27
2017-10-01T20:09:45.016Z,11.30
2017-10-01T20:12:12.313Z,13.60
2017-10-01T20:14:39.641Z,12.40
2017-10-01T20:17:06.904Z,13.57
2017-10-01T20:19:34.577Z,12.80
2017-10-01T20:22:02.259Z,18.53
2017-10-01T20:24:31.089Z,11.93
2017-10-01T20:26:58.798Z,18.63
2017-10-01T20:29:26.639Z,10.47
2017-10-01T20:31:54.421Z,11.20
2017-10-01T20:34:22.097Z,11.40
2017-10-01T20:36:49.869Z,13.43
2017-10-01T20:39:17.259Z,14.90
2017-10-01T20:41:44.557Z,16.30
2017-10-01T20:44:11.827Z,14.07
2017-10-01T20:46:39.171Z,12.27
2017-10-01T20:49:06.444Z,17.27
2017-10-01T20:51:33.718Z,16.67
2017-10-01T20:54:01.011Z,15.60
2017-10-01T20:56:28.328Z,14.97
2017-10-01T20:58:55.990Z,14.13
2017-10-01T21:01:23.723Z,14.10
2017-10-01T21:03:51.500Z,13.77
2017-10-01T21:06:19.659Z,18.47
2017-10-01T21:08:47.447Z,15.57
2017-10-01T21:11:15.374Z,14.33
2017-10-01T21:13:43.197Z,13.83
2017-10-01T21:16:11.038Z,13.57
2017-10-01T21:18:38.426Z,19.00
2017-10-01T21:21:05.730Z,13.87
2017-10-01T21:23:33.001Z,15.13
2017-10-01T21:26:00.279Z,11.10
2017-10-01T21:28:27.587Z,13.90
2017-10-01T21:30:54.868Z,15.13
2017-10-01T21:33:22.198Z,13.80
2017-10-01T21:35:49.474Z,16.80
2017-10-01T21:38:17.088Z,14.73
2017-10-01T21:40:44.851Z,15.87
2017-10-01T21:43:12.543Z,15.13
2017-10-01T21:45:40.244Z,19.60
2017-10-01T21:48:07.616Z,13.07
2017-10-01T21:50:34.889Z,18.83
2017-10-01T21:53:02.185Z,13.27
2017-10-01T21:55:29.510Z,13.60
2017-10-01T21:57:57.096Z,13.70
2017-10-01T22:00:24.979Z,10.67
2017-10-01T22:02:52.752Z,13.63
2017-10-01T22:05:20.503Z,15.53
2017-10-01T22:07:48.366Z,13.80
2017-10-01T22:10:16.213Z,12.83
2017-10-01T22:12:43.980Z,11.10
2017-10-01T22:15:12.292Z,12.60
2017-10-01T22:17:39.962Z,13.23
2017-10-01T22:20:07.618Z,13.93
2017-10-01T22:22:35.540Z,11.47
2017-10-01T22:25:03.190Z,12.70
2017-10-01T22:30:04.681Z,16.00
2017-10-01T22:32:32.449Z,15.20
2017-10-01T22:35:00.142Z,16.20
2017-10-01T22:37:27.844Z,12.77
2017-10-01T22:39:55.612Z,21.87
2017-10-01T22:42:23.301Z,11.40
2017-10-01T22:44:50.984Z,14.53
2017-10-01T22:47:18.855Z,16.43
2017-10-01T22:49:46.527Z,10.03
2017-10-01T22:52:14.174Z,11.20
2017-10-01T22:54:41.997Z,14.50
2017-10-01T22:57:09.648Z,14.87
2017-10-01T22:59:37.277Z,14.93
2017-10-01T23:02:05.806Z,12.73
2017-10-01T23:04:33.526Z,14.50
2017-10-01T23:07:01.167Z,15.60
2017-10-01T23:09:29.461Z,12.30
2017-10-01T23:11:57.733Z,12.00
2017-10-01T23:14:25.100Z,14.60
2017-10-01T23:16:52.359Z,10.53
2017-10-01T23:19:19.656Z,12.23
2017-10-01T23:21:46.926Z,13.60
2017-10-01T23:24:14.187Z,11.83
2017-10-01T23:26:41.479Z,12.47
2017-10-01T23:29:08.746Z,10.13
2017-10-01T23:31:36.027Z,9.40
2017-10-01T23:34:03.340Z,12.73
2017-10-01T23:36:30.596Z,14.03
2017-10-01T23:38:57.863Z,11.10
2017-10-01T23:41:25.164Z,11.33
2017-10-01T23:43:52.429Z,12.47
2017-10-01T23:46:19.695Z,15.90
2017-10-01T23:48:46.991Z,10.10
2017-10-01T23:51:14.303Z,11.50
2017-10-01T23:53:41.563Z,10.23
2017-10-01T23:56:08.830Z,9.87
2017-10-01T23:58:36.145Z,9.40
